Time;durP1;ratioP1;P1;durP2;ratioP2;P2;SDS_P1;SDS_P2;PMS_P1;PMS_P2;Temp;Humidity;BMP_temperature;BMP_pressure;BME280_temperature;BME280_humidity;BME280_pressure;Samples;Min_cycle;Max_cycle;Signal;HPM_P1;HPM_P2
2022/04/13 07:38:17;;;;;;;10.95;4.30;;;;;;;14.63;66.10;100218.50;5136257;27;20434;-79
2022/04/13 07:40:44;;;;;;;39.57;9.63;;;;;;;14.89;65.12;100223.59;5110706;27;20412;-78
2022/04/13 07:43:09;;;;;;;26.33;8.13;;;;;;;15.20;64.49;100232.47;5123242;27;20953;-79
2022/04/13 07:45:43;;;;;;;11.67;4.33;;;;;;;15.49;63.96;100238.88;5129629;27;20475;-79
2022/04/13 07:48:09;;;;;;;11.93;4.28;;;;;;;15.77;63.00;100231.06;5126404;27;20792;-80
2022/04/13 07:50:34;;;;;;;5.90;3.83;;;;;;;15.98;62.05;100232.53;5128423;27;20453;-81
2022/04/13 07:53:02;;;;;;;6.28;3.22;;;;;;;16.16;60.69;100239.22;5138295;27;20393;-81
2022/04/13 07:55:27;;;;;;;6.07;2.80;;;;;;;16.28;59.99;100240.47;5119948;27;20721;-80
2022/04/13 07:57:53;;;;;;;6.75;2.65;;;;;;;16.37;59.71;100246.13;5130192;27;20462;-81
2022/04/13 08:00:18;;;;;;;5.47;3.87;;;;;;;16.43;59.61;100245.00;5133854;27;20411;-80
2022/04/13 08:02:44;;;;;;;11.30;3.55;;;;;;;16.50;59.95;100245.44;5127686;27;20754;-80
2022/04/13 08:05:12;;;;;;;6.40;2.40;;;;;;;16.54;59.28;100241.84;5129125;27;20383;-80
2022/04/13 08:07:38;;;;;;;4.88;2.72;;;;;;;16.56;59.04;100244.34;5134484;27;20467;-79
2022/04/13 08:10:04;;;;;;;7.45;2.53;;;;;;;16.68;59.38;100252.94;5123984;27;20423;-80
2022/04/13 08:12:30;;;;;;;5.60;3.00;;;;;;;16.81;58.88;100254.19;5131143;27;20403;-79
2022/04/13 08:14:56;;;;;;;4.70;2.10;;;;;;;16.93;58.70;100258.13;5117954;27;20399;-80
2022/04/13 08:17:24;;;;;;;7.33;2.70;;;;;;;17.06;57.30;100257.44;5125638;27;20408;-81
2022/04/13 08:19:49;;;;;;;6.65;2.22;;;;;;;17.17;56.54;100260.03;5123309;27;20409;-82
2022/04/13 08:22:16;;;;;;;4.87;2.57;;;;;;;17.26;55.53;100263.75;5118887;27;20415;-81
2022/04/13 08:24:41;;;;;;;10.40;2.35;;;;;;;17.37;55.31;100263.34;5127643;28;20444;-81
2022/04/13 08:27:09;;;;;;;5.83;2.53;;;;;;;17.50;55.70;100265.34;5119907;27;20394;-80
2022/04/13 08:29:35;;;;;;;8.65;2.08;;;;;;;17.67;55.49;100253.91;5129224;27;20426;-82
2022/04/13 08:32:00;;;;;;;5.45;2.33;;;;;;;17.84;55.28;100267.09;5123545;27;20406;-81
2022/04/13 08:34:26;;;;;;;4.47;2.07;;;;;;;17.98;52.93;100257.00;5119869;27;20397;-82
2022/04/13 08:36:51;;;;;;;7.13;2.40;;;;;;;18.06;53.13;100262.63;5117204;28;20437;-79
2022/04/13 08:39:16;;;;;;;5.80;2.57;;;;;;;18.19;51.20;100260.22;5118945;27;20470;-79
2022/04/13 08:41:58;;;;;;;7.73;1.80;;;;;;;18.35;49.27;100251.44;5125317;28;20411;-79
2022/04/13 08:44:46;;;;;;;7.90;2.40;;;;;;;18.52;48.27;100253.63;5126892;28;20479;-81
2022/04/13 08:47:15;;;;;;;7.35;1.77;;;;;;;18.64;46.40;100254.75;5128742;27;20716;-81
2022/04/13 08:49:44;;;;;;;4.68;1.63;;;;;;;18.80;45.20;100257.25;5114564;28;20381;-81
2022/04/13 08:52:14;;;;;;;3.38;1.60;;;;;;;18.93;45.08;100251.75;5100998;28;20398;-81
2022/04/13 08:54:53;;;;;;;5.45;1.92;;;;;;;19.08;43.98;100250.63;5110094;28;20404;-81
2022/04/13 08:57:21;;;;;;;4.10;1.40;;;;;;;19.24;43.13;100254.69;5099077;28;20419;-80
2022/04/13 09:00:02;;;;;;;3.92;1.52;;;;;;;19.47;43.98;100250.09;5113840;28;20597;-81
2022/04/13 09:03:21;;;;;;;4.00;2.00;;;;;;;19.67;42.50;100258.69;5097931;28;20761;-81
2022/04/13 09:05:50;;;;;;;8.27;1.58;;;;;;;20.02;41.49;100259.00;5044666;28;20408;-82
2022/04/13 09:08:25;;;;;;;3.85;1.65;;;;;;;20.34;40.89;100257.94;5066173;28;20401;-81
2022/04/13 09:10:54;;;;;;;4.55;1.58;;;;;;;20.64;39.35;100254.41;5087866;28;20388;-82
2022/04/13 09:13:21;;;;;;;4.33;1.50;;;;;;;20.78;38.58;100254.31;5107225;28;20380;-81
2022/04/13 09:15:48;;;;;;;5.90;1.70;;;;;;;20.78;38.35;100257.06;5106817;28;20391;-81
2022/04/13 09:18:14;;;;;;;6.95;1.52;;;;;;;21.07;39.16;100252.63;5113144;28;20417;-81
2022/04/13 09:20:45;;;;;;;6.10;1.67;;;;;;;21.39;36.94;100251.44;5096678;28;20495;-81
2022/04/13 09:23:12;;;;;;;5.70;1.48;;;;;;;21.73;35.60;100253.44;5114211;28;20400;-81
2022/04/13 09:25:40;;;;;;;6.05;1.40;;;;;;;21.99;35.14;100251.53;5100700;28;20487;-80
2022/04/13 09:28:05;;;;;;;5.10;1.77;;;;;;;22.23;34.77;100256.50;5099963;28;20408;-81
2022/04/13 09:30:35;;;;;;;5.68;1.85;;;;;;;22.57;33.98;100250.91;5102567;28;20389;-81
2022/04/13 09:33:02;;;;;;;6.50;1.63;;;;;;;22.77;32.76;100256.88;5112601;28;20716;-81
2022/04/13 09:35:30;;;;;;;4.80;1.60;;;;;;;23.03;33.10;100255.63;5114202;28;20392;-81
2022/04/13 09:38:07;;;;;;;3.58;1.23;;;;;;;23.36;31.98;100261.31;5098244;28;20418;-81
2022/04/13 09:40:34;;;;;;;7.22;1.60;;;;;;;23.57;31.34;100253.91;5113196;28;20411;-81
2022/04/13 09:43:13;;;;;;;6.32;1.83;;;;;;;23.96;31.46;100263.69;5098862;28;20390;-81
2022/04/13 09:45:44;;;;;;;8.38;1.95;;;;;;;24.38;30.96;100258.91;5109215;28;20395;-81
2022/04/13 09:48:14;;;;;;;4.43;2.00;;;;;;;24.71;30.57;100269.97;5097307;28;20396;-81
2022/04/13 09:50:41;;;;;;;2.30;1.30;;;;;;;25.08;30.08;100260.56;5114074;28;20541;-81
2022/04/13 09:53:08;;;;;;;3.13;1.30;;;;;;;25.38;30.39;100258.34;5113907;28;20388;-81
2022/04/13 09:55:38;;;;;;;7.07;1.48;;;;;;;25.53;29.43;100260.44;5112440;28;20393;-81
2022/04/13 09:58:23;;;;;;;4.07;1.30;;;;;;;25.76;28.97;100261.53;5102474;28;20423;-81
2022/04/13 10:00:50;;;;;;;5.00;1.48;;;;;;;25.78;29.77;100258.44;5111392;28;20905;-81
2022/04/13 10:03:18;;;;;;;4.65;1.50;;;;;;;25.87;29.37;100256.31;5109123;28;20455;-81
2022/04/13 10:05:46;;;;;;;5.60;1.40;;;;;;;25.82;28.59;100253.00;5113612;28;20385;-81
2022/04/13 10:08:13;;;;;;;3.10;1.40;;;;;;;26.18;28.78;100256.44;5112311;28;20416;-81
2022/04/13 10:10:49;;;;;;;4.85;1.95;;;;;;;26.52;28.17;100260.56;5112217;28;20939;-82
2022/04/13 10:13:34;;;;;;;5.55;1.90;;;;;;;27.01;27.32;100257.47;5113312;28;20393;-81
2022/04/13 10:16:02;;;;;;;5.00;1.83;;;;;;;27.21;26.66;100257.19;5099054;28;20473;-81
2022/04/13 10:18:28;;;;;;;7.63;1.80;;;;;;;27.30;28.16;100259.78;5113139;28;20395;-81
2022/04/13 10:20:53;;;;;;;3.23;1.47;;;;;;;27.46;27.76;100255.03;5104207;28;20382;-81
2022/04/13 10:23:18;;;;;;;2.63;1.70;;;;;;;27.66;27.03;100253.09;5105307;28;20410;-81
2022/04/13 10:25:44;;;;;;;2.63;1.70;;;;;;;27.89;26.50;100247.63;5113159;28;20438;-81
2022/04/13 10:28:12;;;;;;;6.30;2.20;;;;;;;28.00;25.67;100240.28;5113285;28;20396;-81
2022/04/13 10:30:41;;;;;;;3.10;1.60;;;;;;;28.07;25.49;100243.25;5113161;28;20897;-82
2022/04/13 10:33:08;;;;;;;7.00;1.90;;;;;;;28.28;26.37;100238.91;5112208;28;20411;-81
2022/04/13 10:35:36;;;;;;;6.82;1.63;;;;;;;28.30;25.17;100249.69;5113092;28;20388;-81
2022/04/13 10:38:03;;;;;;;3.00;1.42;;;;;;;28.32;25.82;100245.34;5100779;28;20769;-80
2022/04/13 10:40:33;;;;;;;8.40;2.00;;;;;;;28.64;25.03;100237.59;5095075;28;20405;-81
2022/04/13 10:43:04;;;;;;;3.88;1.42;;;;;;;28.78;25.11;100240.63;5109534;28;20404;-81
2022/04/13 10:45:30;;;;;;;5.27;1.60;;;;;;;28.62;25.14;100237.13;5112745;28;20402;-81
2022/04/13 10:48:11;;;;;;;7.40;1.70;;;;;;;28.94;24.21;100239.72;5112851;28;20383;-81
2022/04/13 10:51:00;;;;;;;6.18;1.73;;;;;;;28.88;23.69;100246.78;5112759;28;20396;-81
2022/04/13 10:53:41;;;;;;;3.47;1.70;;;;;;;29.34;23.76;100237.19;5097958;28;20958;-81
2022/04/13 10:56:10;;;;;;;5.83;1.67;;;;;;;29.51;23.21;100235.81;5110483;28;20393;-82
2022/04/13 10:59:09;;;;;;;6.18;1.60;;;;;;;29.33;23.83;100232.78;5112558;28;20380;-81
2022/04/13 11:01:44;;;;;;;5.55;1.48;;;;;;;29.30;22.17;100230.75;5111209;28;20392;-81
2022/04/13 11:04:09;;;;;;;2.90;1.20;;;;;;;29.70;23.15;100230.94;5112627;28;20799;-81
2022/04/13 11:06:35;;;;;;;4.47;1.53;;;;;;;29.71;21.49;100226.94;5111085;28;20439;-82
2022/04/13 11:09:04;;;;;;;4.03;1.55;;;;;;;29.63;22.25;100227.25;5105419;28;20428;-81
2022/04/13 11:11:35;;;;;;;6.40;1.80;;;;;;;29.98;22.25;100224.91;5105071;28;20386;-81
2022/04/13 11:14:15;;;;;;;6.43;2.07;;;;;;;30.25;22.74;100237.63;5106564;28;20396;-81
2022/04/13 11:16:43;;;;;;;3.70;1.70;;;;;;;30.34;22.55;100226.13;5112423;28;20384;-81
2022/04/13 11:19:11;;;;;;;6.60;1.85;;;;;;;30.14;23.12;100233.91;5112167;28;20389;-81
2022/04/13 11:22:02;;;;;;;6.75;1.55;;;;;;;30.36;23.22;100230.13;5112232;28;20796;-82
2022/04/13 11:24:36;;;;;;;6.82;1.77;;;;;;;29.85;23.73;100229.97;5098197;28;20416;-81
2022/04/13 11:27:03;;;;;;;4.93;1.70;;;;;;;30.07;22.94;100233.81;5112100;28;20457;-82
2022/04/13 11:29:37;;;;;;;11.60;1.63;;;;;;;30.22;23.57;100226.41;5110144;28;20881;-81
2022/04/13 11:32:04;;;;;;;6.55;1.90;;;;;;;30.43;22.92;100228.66;5112075;28;20881;-81
2022/04/13 11:34:39;;;;;;;5.00;1.83;;;;;;;29.99;23.40;100220.13;5110699;28;20389;-81
2022/04/13 11:37:08;;;;;;;6.63;1.90;;;;;;;30.35;21.99;100224.94;5111116;28;20423;-81
2022/04/13 11:39:42;;;;;;;7.30;1.55;;;;;;;30.37;23.34;100216.97;5105815;28;20747;-81
2022/04/13 11:42:26;;;;;;;7.18;2.38;;;;;;;30.95;23.48;100219.13;5110606;28;20423;-82
2022/04/13 11:45:05;;;;;;;5.85;1.77;;;;;;;30.74;23.83;100217.78;5111570;28;20388;-81
2022/04/13 11:47:58;;;;;;;5.22;2.47;;;;;;;30.83;22.87;100220.22;5105147;28;20420;-81
2022/04/13 11:50:26;;;;;;;4.78;2.15;;;;;;;30.94;22.26;100217.53;5096634;28;20384;-79
2022/04/13 11:53:09;;;;;;;5.63;2.13;;;;;;;31.30;22.75;100217.44;5102426;28;20402;-80
2022/04/13 11:55:40;;;;;;;6.15;1.90;;;;;;;31.43;21.52;100208.69;5106941;28;20391;-80
2022/04/13 11:58:08;;;;;;;3.40;1.83;;;;;;;31.36;21.76;100213.06;5111818;28;20427;-79
2022/04/13 12:00:45;;;;;;;3.38;1.60;;;;;;;31.40;21.96;100204.69;5112065;28;20403;-80
2022/04/13 12:03:32;;;;;;;3.78;2.13;;;;;;;31.43;22.96;100206.69;5100373;28;20386;-81
2022/04/13 12:06:09;;;;;;;5.50;2.08;;;;;;;31.45;22.12;100209.91;5096052;28;20388;-81
2022/04/13 12:08:41;;;;;;;7.72;2.10;;;;;;;31.38;22.37;100201.50;5109487;28;20401;-81
2022/04/13 12:11:20;;;;;;;5.97;1.83;;;;;;;31.26;22.80;100199.81;5111723;28;20731;-81
2022/04/13 12:13:46;;;;;;;7.53;2.50;;;;;;;31.30;21.99;100197.84;5111197;28;20420;-81
2022/04/13 12:16:25;;;;;;;7.13;1.98;;;;;;;31.43;22.64;100200.28;5111636;28;20380;-81
2022/04/13 12:18:53;;;;;;;5.67;2.10;;;;;;;31.81;22.22;100206.13;5111319;28;20396;-80
2022/04/13 12:21:26;;;;;;;4.78;2.55;;;;;;;32.01;21.80;100208.63;5108736;28;20384;-79
2022/04/13 12:23:53;;;;;;;4.75;2.30;;;;;;;31.83;21.66;100208.53;5099746;28;20900;-79
2022/04/13 12:26:29;;;;;;;5.10;2.05;;;;;;;31.64;22.08;100206.88;5099799;28;20760;-79
2022/04/13 12:28:56;;;;;;;5.30;1.77;;;;;;;31.70;21.23;100202.47;5094299;28;20410;-79
2022/04/13 12:31:27;;;;;;;5.95;2.20;;;;;;;32.07;22.18;100205.06;5084341;28;20410;-79
2022/04/13 12:33:52;;;;;;;6.32;1.90;;;;;;;31.77;21.52;100198.91;5115588;28;20450;-79
2022/04/13 12:36:20;;;;;;;7.93;1.80;;;;;;;32.13;20.68;100197.06;5110781;28;20449;-80
2022/04/13 12:38:47;;;;;;;8.20;1.92;;;;;;;32.36;21.60;100203.13;5110851;28;20407;-79
2022/04/13 12:41:13;;;;;;;8.68;2.28;;;;;;;32.27;21.13;100194.31;5113723;28;20788;-79
2022/04/13 12:43:41;;;;;;;4.50;1.67;;;;;;;32.34;20.62;100197.91;5104966;28;20400;-79
2022/04/13 12:46:15;;;;;;;2.50;1.80;;;;;;;32.34;21.88;100200.69;5113788;28;20743;-80
2022/04/13 12:48:43;;;;;;;6.07;1.83;;;;;;;32.39;21.51;100193.91;5114905;28;20437;-79
2022/04/13 12:51:09;;;;;;;3.80;2.10;;;;;;;32.17;21.70;100189.47;5093794;28;20390;-79
2022/04/13 12:54:10;;;;;;;5.15;1.50;;;;;;;32.18;22.13;100197.47;5096372;28;20438;-79
2022/04/13 12:56:41;;;;;;;8.95;2.63;;;;;;;32.18;20.81;100196.66;5111952;28;20401;-79
2022/04/13 12:59:06;;;;;;;9.18;1.83;;;;;;;32.14;21.67;100193.84;5097831;28;20975;-79
2022/04/13 13:01:36;;;;;;;7.57;2.10;;;;;;;32.10;21.02;100186.63;5092218;28;20404;-78
2022/04/13 13:04:08;;;;;;;8.98;2.10;;;;;;;32.01;22.15;100183.38;5106689;28;20408;-78
2022/04/13 13:06:37;;;;;;;6.15;1.60;;;;;;;32.26;21.75;100190.69;5111864;28;20886;-78
2022/04/13 13:09:05;;;;;;;8.05;1.80;;;;;;;32.32;20.89;100186.28;5100734;28;20404;-77
2022/04/13 13:11:32;;;;;;;5.25;1.77;;;;;;;32.44;21.37;100178.69;5110938;28;20870;-78
2022/04/13 13:14:11;;;;;;;7.82;1.77;;;;;;;32.50;21.04;100177.91;5114209;28;20400;-78
2022/04/13 13:16:42;;;;;;;5.70;2.05;;;;;;;32.47;20.50;100166.69;5112742;28;20886;-78
2022/04/13 13:19:23;;;;;;;4.53;1.60;;;;;;;32.40;19.93;100171.06;5108893;28;20507;-77
2022/04/13 13:22:11;;;;;;;5.45;2.40;;;;;;;32.36;20.20;100167.47;5111818;28;20939;-78
2022/04/13 13:24:45;;;;;;;9.93;2.20;;;;;;;32.55;21.08;100163.47;5104626;28;20412;-78
2022/04/13 13:27:12;;;;;;;6.68;2.15;;;;;;;32.45;21.31;100152.22;5107473;28;20426;-79
2022/04/13 13:29:45;;;;;;;5.90;1.85;;;;;;;32.49;21.84;100156.66;5110832;28;20400;-79
2022/04/13 13:32:16;;;;;;;6.63;1.92;;;;;;;32.68;20.82;100152.69;5113868;28;20509;-79
2022/04/13 13:34:59;;;;;;;7.00;2.25;;;;;;;32.67;20.41;100149.06;5112741;28;20416;-78
2022/04/13 13:37:50;;;;;;;5.67;1.93;;;;;;;32.65;20.62;100153.47;5112433;28;20404;-79
2022/04/13 13:40:35;;;;;;;6.20;2.00;;;;;;;32.61;21.35;100139.44;5109641;28;20396;-79
2022/04/13 13:43:03;;;;;;;11.15;2.38;;;;;;;32.44;21.17;100145.81;5112272;28;20419;-79
2022/04/13 13:45:30;;;;;;;7.78;1.95;;;;;;;32.37;20.17;100143.81;5107200;28;20407;-79
2022/04/13 13:47:56;;;;;;;9.68;2.30;;;;;;;32.31;20.54;100142.59;5110511;28;20420;-79
2022/04/13 13:50:24;;;;;;;7.27;2.00;;;;;;;32.20;21.01;100149.41;5112519;28;20396;-79
2022/04/13 13:52:50;;;;;;;8.85;1.92;;;;;;;32.14;22.00;100145.41;5109672;28;20556;-78
2022/04/13 13:55:26;;;;;;;4.90;1.83;;;;;;;32.04;21.63;100143.34;5112751;28;20479;-79
2022/04/13 13:57:52;;;;;;;4.93;2.35;;;;;;;32.26;21.22;100148.63;5111519;28;20396;-78
2022/04/13 14:00:18;;;;;;;5.93;2.00;;;;;;;32.38;21.42;100148.22;5109923;28;20396;-79
2022/04/13 14:02:47;;;;;;;8.23;1.75;;;;;;;32.20;21.32;100141.00;5106592;28;20408;-79
2022/04/13 14:05:12;;;;;;;8.75;1.85;;;;;;;32.00;21.26;100146.16;5109566;28;20397;-78
2022/04/13 14:07:39;;;;;;;8.48;2.15;;;;;;;31.47;21.20;100143.13;5105950;28;20489;-78
2022/04/13 14:10:05;;;;;;;8.43;2.42;;;;;;;31.14;22.19;100143.34;5111761;28;20389;-78
2022/04/13 14:12:30;;;;;;;3.15;2.20;;;;;;;30.96;23.51;100139.59;5111049;27;20446;-78
2022/04/13 14:14:56;;;;;;;7.93;2.07;;;;;;;30.99;23.39;100136.84;5109255;28;20397;-78
2022/04/13 14:17:22;;;;;;;8.10;2.20;;;;;;;31.12;22.93;100134.53;5104512;28;20398;-78
2022/04/13 14:19:47;;;;;;;3.72;1.50;;;;;;;30.91;21.88;100131.56;5106275;28;20402;-78
2022/04/13 14:22:12;;;;;;;10.30;1.90;;;;;;;30.84;23.05;100127.53;5106300;28;20449;-78
2022/04/13 14:24:38;;;;;;;9.50;2.20;;;;;;;30.86;23.11;100129.91;5108493;28;20940;-78
2022/04/13 14:27:03;;;;;;;8.57;1.80;;;;;;;30.44;23.25;100135.19;5090357;28;20440;-78
2022/04/13 14:29:29;;;;;;;9.00;2.10;;;;;;;30.18;23.37;100130.53;5091110;28;20405;-78
2022/04/13 14:31:54;;;;;;;4.20;1.90;;;;;;;29.71;23.28;100131.97;5112863;28;20395;-79
2022/04/13 14:34:21;;;;;;;7.87;2.13;;;;;;;29.40;24.75;100140.78;5089985;28;20397;-78
2022/04/13 14:36:47;;;;;;;7.50;2.05;;;;;;;29.54;24.24;100137.38;5111522;28;20809;-75
2022/04/13 14:39:12;;;;;;;5.38;2.22;;;;;;;29.53;24.44;100135.75;5112456;28;20875;-77
2022/04/13 14:41:38;;;;;;;9.07;2.80;;;;;;;29.63;24.00;100137.88;5111700;28;20407;-77
2022/04/13 14:44:03;;;;;;;5.20;2.00;;;;;;;29.79;23.56;100136.47;5106073;28;20400;-79
2022/04/13 14:46:28;;;;;;;6.40;1.60;;;;;;;29.40;24.13;100128.81;5099495;27;20453;-79
2022/04/13 14:48:54;;;;;;;8.43;1.90;;;;;;;28.62;24.93;100125.59;5098456;27;20400;-79
2022/04/13 14:51:19;;;;;;;7.93;2.00;;;;;;;28.30;25.31;100127.06;5099265;28;20407;-80
2022/04/13 14:53:44;;;;;;;8.10;2.17;;;;;;;28.39;25.76;100127.59;5099759;28;20436;-80
2022/04/13 14:56:10;;;;;;;6.23;1.97;;;;;;;28.47;24.59;100134.13;5106835;28;20397;-80
2022/04/13 14:58:36;;;;;;;5.07;1.60;;;;;;;28.43;25.16;100128.47;5097784;28;20383;-80
2022/04/13 15:01:02;;;;;;;8.43;2.00;;;;;;;28.47;24.57;100132.13;5111032;28;20403;-80
2022/04/13 15:03:27;;;;;;;6.37;1.60;;;;;;;28.53;25.17;100125.06;5108351;28;20393;-80
2022/04/13 15:05:53;;;;;;;7.60;1.50;;;;;;;28.59;25.50;100126.34;5110667;28;20395;-80
2022/04/13 15:08:18;;;;;;;9.67;1.80;;;;;;;28.57;24.49;100117.56;5072204;28;21009;-80
2022/04/13 15:10:43;;;;;;;6.60;1.60;;;;;;;28.60;24.45;100119.63;5104825;28;20416;-80
2022/04/13 15:13:09;;;;;;;9.93;2.10;;;;;;;28.51;25.28;100121.03;5103439;28;20408;-80
2022/04/13 15:15:34;;;;;;;7.50;1.90;;;;;;;28.48;25.32;100121.78;5102796;28;20640;-80
2022/04/13 15:17:59;;;;;;;7.03;2.07;;;;;;;28.23;25.44;100129.72;5099805;28;20426;-79
2022/04/13 15:20:25;;;;;;;7.10;1.40;;;;;;;28.15;25.90;100136.34;5109550;28;20965;-79
2022/04/13 15:22:51;;;;;;;8.32;1.65;;;;;;;28.03;25.08;100128.94;5099394;28;20396;-79
2022/04/13 15:25:16;;;;;;;5.47;2.13;;;;;;;28.00;26.18;100131.63;5111883;28;20785;-79
2022/04/13 15:27:42;;;;;;;11.13;2.00;;;;;;;27.88;25.90;100129.84;5110472;28;20404;-79
2022/04/13 15:30:10;;;;;;;5.57;1.77;;;;;;;27.87;27.10;100132.97;5112038;28;20380;-79
2022/04/13 15:32:35;;;;;;;7.75;1.92;;;;;;;27.85;26.56;100130.59;5109909;28;20716;-79
2022/04/13 15:35:00;;;;;;;11.10;2.10;;;;;;;27.78;26.80;100131.25;5110482;28;20392;-79
2022/04/13 15:37:26;;;;;;;5.87;2.20;;;;;;;27.57;26.48;100132.78;5110274;28;20401;-79
2022/04/13 15:39:52;;;;;;;11.00;2.40;;;;;;;27.49;27.01;100139.38;5111952;28;20384;-79
2022/04/13 15:42:18;;;;;;;11.10;2.17;;;;;;;27.30;27.39;100134.56;5111838;28;20863;-79
2022/04/13 15:44:43;;;;;;;6.23;2.20;;;;;;;27.07;28.13;100142.81;5103275;28;20381;-79
2022/04/13 15:47:08;;;;;;;5.53;2.00;;;;;;;26.91;28.32;100139.25;5111910;28;20404;-78
2022/04/13 15:49:34;;;;;;;7.33;2.13;;;;;;;26.83;28.50;100139.47;5111578;28;20855;-78
2022/04/13 15:51:59;;;;;;;6.82;2.88;;;;;;;26.66;28.29;100135.88;5111648;28;20407;-79
2022/04/13 15:54:28;;;;;;;4.83;1.50;;;;;;;26.53;28.55;100145.47;5110525;28;20727;-78
2022/04/13 15:56:53;;;;;;;7.40;2.00;;;;;;;26.42;28.81;100138.00;5111518;28;20379;-79
2022/04/13 15:59:18;;;;;;;8.60;2.43;;;;;;;26.31;28.97;100140.53;5114459;28;20734;-78
2022/04/13 16:01:44;;;;;;;7.57;1.90;;;;;;;26.17;29.04;100140.16;5110005;28;20388;-78
2022/04/13 16:04:09;;;;;;;8.93;2.13;;;;;;;26.00;29.02;100138.50;5115797;28;20759;-79
2022/04/13 16:06:36;;;;;;;7.60;2.20;;;;;;;25.93;29.25;100137.47;5108570;28;20416;-79
2022/04/13 16:09:01;;;;;;;5.15;2.25;;;;;;;25.82;29.08;100144.72;5115737;28;20404;-79
2022/04/13 16:11:26;;;;;;;13.40;2.30;;;;;;;25.65;29.80;100143.84;5115258;28;20388;-79
2022/04/13 16:13:52;;;;;;;5.80;2.20;;;;;;;25.54;29.49;100145.53;5114093;28;20380;-79
2022/04/13 16:16:17;;;;;;;5.80;1.80;;;;;;;25.44;29.89;100145.97;5115744;28;20376;-78
2022/04/13 16:18:42;;;;;;;6.07;2.63;;;;;;;25.29;30.22;100149.50;5112622;28;20368;-79
2022/04/13 16:21:08;;;;;;;4.97;2.93;;;;;;;25.17;30.64;100150.31;5115443;28;20874;-79
2022/04/13 16:23:33;;;;;;;10.80;2.97;;;;;;;25.06;30.34;100148.41;5100076;28;20384;-78
2022/04/13 16:25:59;;;;;;;9.77;2.80;;;;;;;24.97;30.85;100148.50;5115373;28;20428;-78
2022/04/13 16:28:26;;;;;;;7.60;2.92;;;;;;;24.86;31.17;100152.91;5113768;28;20407;-79
2022/04/13 16:30:51;;;;;;;8.17;3.30;;;;;;;24.79;31.44;100152.66;5113915;28;20471;-79
2022/04/13 16:33:16;;;;;;;7.93;3.20;;;;;;;24.70;31.87;100151.94;5113954;28;20526;-79
2022/04/13 16:35:43;;;;;;;7.97;2.67;;;;;;;24.60;31.78;100158.75;5110823;27;20386;-78
2022/04/13 16:38:09;;;;;;;9.63;2.75;;;;;;;24.52;32.14;100159.69;5122768;27;20412;-78
2022/04/13 16:40:34;;;;;;;9.57;2.37;;;;;;;24.46;32.59;100155.53;5114215;28;20384;-78
2022/04/13 16:42:59;;;;;;;11.52;2.30;;;;;;;24.38;32.66;100153.66;5114948;28;20384;-78
2022/04/13 16:45:31;;;;;;;7.93;2.70;;;;;;;24.30;32.63;100157.34;5113585;28;20584;-79
2022/04/13 16:47:57;;;;;;;5.80;3.13;;;;;;;24.26;32.75;100150.88;5115038;28;20491;-79
2022/04/13 16:50:23;;;;;;;6.97;2.80;;;;;;;24.18;32.91;100163.66;5114900;28;20431;-78
2022/04/13 16:52:48;;;;;;;8.30;3.30;;;;;;;24.11;33.39;100159.78;5111999;28;20892;-78
2022/04/13 16:55:14;;;;;;;7.53;3.20;;;;;;;24.05;33.57;100166.69;5112749;28;20396;-76
2022/04/13 16:57:46;;;;;;;6.57;3.00;;;;;;;23.97;34.20;100176.72;5106558;28;20384;-80
2022/04/13 17:00:13;;;;;;;12.43;2.93;;;;;;;23.89;34.20;100174.03;5100131;28;20416;-79
2022/04/13 17:02:38;;;;;;;7.40;3.80;;;;;;;23.75;34.25;100172.38;5097835;27;20459;-79
2022/04/13 17:05:04;;;;;;;6.20;2.40;;;;;;;23.68;34.55;100174.06;5123321;27;20388;-78
2022/04/13 17:07:30;;;;;;;8.13;3.00;;;;;;;23.63;34.72;100180.63;5113951;27;20402;-78
2022/04/13 17:09:56;;;;;;;8.40;3.23;;;;;;;23.57;34.92;100173.69;5109059;27;20435;-78
2022/04/13 17:12:22;;;;;;;6.15;2.53;;;;;;;23.50;35.36;100175.34;5120322;27;20394;-77
2022/04/13 17:14:47;;;;;;;7.40;2.30;;;;;;;23.43;34.84;100173.13;5113518;27;20487;-77
2022/04/13 17:17:12;;;;;;;7.83;2.87;;;;;;;23.37;35.45;100174.44;5113107;28;20404;-78
2022/04/13 17:19:37;;;;;;;13.37;2.60;;;;;;;23.28;35.04;100182.00;5113794;28;20487;-79
2022/04/13 17:22:03;;;;;;;5.50;2.30;;;;;;;23.17;34.87;100172.47;5114211;28;20399;-79
2022/04/13 17:24:29;;;;;;;6.00;2.38;;;;;;;23.11;35.44;100168.28;5114242;28;20569;-79
2022/04/13 17:26:55;;;;;;;6.72;2.40;;;;;;;23.06;35.83;100163.75;5103286;28;20691;-78
2022/04/13 17:29:20;;;;;;;5.47;2.60;;;;;;;23.04;36.02;100165.25;5105730;28;20404;-80
2022/04/13 17:31:45;;;;;;;8.80;2.90;;;;;;;22.97;35.87;100165.78;5102792;28;20400;-79
2022/04/13 17:34:11;;;;;;;7.83;3.33;;;;;;;22.91;35.94;100163.53;5109567;27;20449;-79
2022/04/13 17:36:39;;;;;;;7.63;3.00;;;;;;;22.80;35.66;100165.06;5103023;28;20404;-78
2022/04/13 17:39:05;;;;;;;10.73;2.95;;;;;;;22.75;35.88;100164.09;5110053;28;20855;-78
2022/04/13 17:41:30;;;;;;;7.33;2.67;;;;;;;22.72;36.07;100163.97;5113832;28;20407;-79
2022/04/13 17:43:56;;;;;;;10.10;2.90;;;;;;;22.66;36.06;100159.75;5089601;28;20500;-78
2022/04/13 17:46:21;;;;;;;5.20;2.33;;;;;;;22.58;36.08;100161.41;5107581;28;20426;-79
2022/04/13 17:48:47;;;;;;;6.30;2.63;;;;;;;22.54;36.40;100156.88;5110984;28;20385;-79
2022/04/13 17:51:13;;;;;;;7.97;2.70;;;;;;;22.46;36.52;100158.50;5108677;28;20743;-78
2022/04/13 17:53:38;;;;;;;9.10;3.17;;;;;;;22.40;36.57;100154.31;5113484;28;20385;-78
2022/04/13 17:56:04;;;;;;;8.87;2.77;;;;;;;22.34;36.82;100158.41;5096223;27;20394;-78
2022/04/13 17:58:30;;;;;;;8.63;2.92;;;;;;;22.27;36.82;100155.34;5113502;27;20481;-78
2022/04/13 18:00:55;;;;;;;9.95;3.90;;;;;;;22.21;36.74;100163.00;5103429;27;20406;-79
2022/04/13 18:03:21;;;;;;;8.80;4.27;;;;;;;22.18;37.21;100166.41;5109733;28;20408;-79
2022/04/13 18:05:46;;;;;;;10.67;3.97;;;;;;;22.14;37.53;100164.63;5112676;28;20851;-79
2022/04/13 18:08:12;;;;;;;12.10;5.17;;;;;;;22.08;37.65;100177.00;5113197;28;20774;-79
2022/04/13 18:10:38;;;;;;;6.97;4.00;;;;;;;22.03;38.40;100172.44;5111695;28;20389;-79
2022/04/13 18:13:04;;;;;;;12.38;4.00;;;;;;;21.97;38.64;100184.78;5110042;28;20400;-78
2022/04/13 18:15:34;;;;;;;9.30;3.72;;;;;;;21.91;38.84;100183.34;5109901;28;20886;-79
2022/04/13 18:18:00;;;;;;;9.30;3.78;;;;;;;21.85;38.69;100189.31;5111379;28;20393;-78
2022/04/13 18:20:25;;;;;;;11.30;2.90;;;;;;;21.77;38.36;100190.16;5112685;28;20421;-79
2022/04/13 18:22:50;;;;;;;7.73;3.20;;;;;;;21.71;38.48;100195.00;5118380;27;20414;-78
2022/04/13 18:25:16;;;;;;;5.57;2.87;;;;;;;21.66;38.93;100200.72;5112938;27;20791;-78
2022/04/13 18:27:42;;;;;;;10.52;3.65;;;;;;;21.59;39.35;100197.63;5112895;28;20447;-78
2022/04/13 18:30:10;;;;;;;9.35;3.10;;;;;;;21.50;39.91;100199.56;5108324;27;20396;-78
2022/04/13 18:32:35;;;;;;;5.03;3.25;;;;;;;21.48;41.27;100197.13;5119444;27;20396;-78
2022/04/13 18:35:01;;;;;;;7.35;3.08;;;;;;;21.44;41.40;100207.16;5109158;27;20479;-78
2022/04/13 18:37:27;;;;;;;10.87;3.13;;;;;;;21.39;42.57;100204.56;5106463;28;20439;-78
2022/04/13 18:39:52;;;;;;;8.27;3.25;;;;;;;21.33;43.27;100205.88;5106188;28;20826;-78
2022/04/13 18:42:17;;;;;;;8.77;3.73;;;;;;;21.26;44.30;100208.28;5099986;28;20404;-79
2022/04/13 18:44:42;;;;;;;9.87;3.43;;;;;;;21.21;43.82;100202.91;5112438;28;20459;-78
2022/04/13 18:47:08;;;;;;;7.30;3.43;;;;;;;21.17;43.38;100213.75;5110739;28;20906;-79
2022/04/13 18:49:34;;;;;;;10.23;3.63;;;;;;;21.13;42.87;100207.28;5105523;28;20405;-79
2022/04/13 18:51:59;;;;;;;8.70;3.90;;;;;;;21.09;42.65;100216.47;5106938;28;20465;-79
2022/04/13 18:54:24;;;;;;;16.13;4.17;;;;;;;21.04;42.78;100219.41;5111906;28;20471;-79
2022/04/13 18:56:50;;;;;;;8.67;3.97;;;;;;;20.99;44.11;100212.09;5104431;28;20464;-78
2022/04/13 18:59:19;;;;;;;7.22;3.90;;;;;;;20.93;45.49;100227.13;5112482;28;20815;-78
2022/04/13 19:01:50;;;;;;;12.52;5.03;;;;;;;20.86;45.44;100225.97;5103723;28;20458;-79
2022/04/13 19:04:16;;;;;;;13.77;4.55;;;;;;;20.81;45.38;100229.69;5111228;28;20442;-78
2022/04/13 19:06:41;;;;;;;8.57;3.87;;;;;;;20.78;45.24;100230.31;5103863;28;20400;-78
2022/04/13 19:09:07;;;;;;;14.35;4.43;;;;;;;20.74;45.33;100242.28;5100666;28;20392;-78